Horsholm, Denmark
Current Conditions -  °F | °C
As of 4:20 AM on Saturday 25 Oct 2014 (Local Time) from EKCH Reporting Station
Broken Clouds Broken Clouds  
Wind Chill: 50°   Ceiling: 1100
Heat Index: 50°   Visibility: 6mi
Dew Point: 48°   Wind: 20mph
Humidity: 94%   Direction: 180°S
Pressure: 30.03"   Gusts: NA
Location:  55.88°N, 12.5°E
Report Text: EKCH 250220Z 18017KT 9000 BKN011 10/09 Q1017 NOSIG
Loading
Personal Weather Stations






























Interactive Weather Map
Tropical Storm Tracking
New forecast layout! Learn more

10-Day Weather Forecast

Advertisements
Track Severe Weather on mobile